createdAt,value
2022-11-22T00:01:30.917Z,100.00
2022-11-22T00:03:57.622Z,100.00
2022-11-22T00:06:24.338Z,100.00
2022-11-22T00:08:51.056Z,100.00
2022-11-22T00:11:17.746Z,100.00
2022-11-22T00:13:44.469Z,100.00
2022-11-22T00:16:11.278Z,100.00
2022-11-22T00:18:38.011Z,100.00
2022-11-22T00:21:07.820Z,99.99
2022-11-22T00:23:34.782Z,100.00
2022-11-22T00:26:01.447Z,100.00
2022-11-22T00:28:28.191Z,99.98
2022-11-22T00:30:54.944Z,100.00
2022-11-22T00:33:21.616Z,100.00
2022-11-22T00:35:48.364Z,99.97
2022-11-22T00:38:15.104Z,99.93
2022-11-22T00:40:41.838Z,99.92
2022-11-22T00:43:08.569Z,99.98
2022-11-22T00:45:35.277Z,99.95
2022-11-22T00:48:01.976Z,99.71
2022-11-22T00:50:28.661Z,99.69
2022-11-22T00:52:55.377Z,99.59
2022-11-22T00:55:22.076Z,99.45
2022-11-22T00:57:48.805Z,99.39
2022-11-22T01:00:16.112Z,99.02
2022-11-22T01:02:42.883Z,99.09
2022-11-22T01:05:10.714Z,98.90
2022-11-22T01:07:37.540Z,98.96
2022-11-22T01:10:04.603Z,98.54
2022-11-22T01:12:31.286Z,98.58
2022-11-22T01:14:57.964Z,98.45
2022-11-22T01:17:24.680Z,98.46
2022-11-22T01:19:51.470Z,98.40
2022-11-22T01:22:18.167Z,98.59
2022-11-22T01:24:44.942Z,98.56
2022-11-22T01:27:11.687Z,98.19
2022-11-22T01:29:38.427Z,98.21
2022-11-22T01:32:05.446Z,98.23
2022-11-22T01:34:32.318Z,98.31
2022-11-22T01:36:58.939Z,98.15
2022-11-22T01:39:25.655Z,98.24
2022-11-22T01:41:52.401Z,97.88
2022-11-22T01:44:29.275Z,97.73
2022-11-22T01:47:15.405Z,97.82
2022-11-22T01:49:46.388Z,97.56
2022-11-22T01:52:16.249Z,97.41
2022-11-22T01:54:43.300Z,97.23
2022-11-22T01:57:12.421Z,97.31
2022-11-22T01:59:40.305Z,96.73
2022-11-22T02:02:07.057Z,96.96
2022-11-22T02:04:33.776Z,96.72
2022-11-22T02:07:32.772Z,96.68
2022-11-22T02:09:59.491Z,96.58
2022-11-22T02:12:27.937Z,96.53
2022-11-22T02:14:55.024Z,96.39
2022-11-22T02:17:21.712Z,96.08
2022-11-22T02:19:49.149Z,95.99
2022-11-22T02:22:21.207Z,96.16
2022-11-22T02:24:57.387Z,96.02
2022-11-22T02:27:24.297Z,95.80
2022-11-22T02:29:50.966Z,96.17
2022-11-22T02:32:17.762Z,96.18
2022-11-22T02:34:48.507Z,95.43
2022-11-22T02:37:18.135Z,95.43
2022-11-22T02:39:45.011Z,95.72
2022-11-22T02:42:11.743Z,95.73
2022-11-22T02:44:38.843Z,95.79
2022-11-22T02:47:05.524Z,95.91
2022-11-22T02:49:32.479Z,95.79
2022-11-22T02:51:59.378Z,95.84
2022-11-22T02:54:26.095Z,95.64
2022-11-22T02:56:52.767Z,95.77
2022-11-22T02:59:19.479Z,95.88
2022-11-22T03:01:46.330Z,95.42
2022-11-22T03:04:24.872Z,95.37
2022-11-22T03:06:53.919Z,95.47
2022-11-22T03:09:20.661Z,95.20
2022-11-22T03:11:47.500Z,95.34
2022-11-22T03:14:15.378Z,95.27
2022-11-22T03:16:45.530Z,95.34
2022-11-22T03:19:12.632Z,95.04
2022-11-22T03:21:40.023Z,94.97
2022-11-22T03:24:07.101Z,94.66
2022-11-22T03:26:34.182Z,94.45
2022-11-22T03:29:01.050Z,94.57
2022-11-22T03:31:27.789Z,94.61
2022-11-22T03:33:55.056Z,94.78
2022-11-22T03:36:21.959Z,94.65
2022-11-22T03:38:48.621Z,94.80
2022-11-22T03:41:15.370Z,94.79
2022-11-22T03:43:42.099Z,94.59
2022-11-22T03:46:13.889Z,94.55
2022-11-22T03:48:40.577Z,93.96
2022-11-22T03:51:07.347Z,93.97
2022-11-22T03:53:34.145Z,93.93
2022-11-22T03:57:25.329Z,94.01
2022-11-22T03:59:52.092Z,93.81
2022-11-22T04:02:18.817Z,93.69
2022-11-22T04:04:45.571Z,93.60
2022-11-22T04:07:12.344Z,93.45
2022-11-22T04:09:39.151Z,93.35
2022-11-22T04:12:05.930Z,93.39
2022-11-22T04:14:51.532Z,93.57
2022-11-22T04:17:38.204Z,93.75
2022-11-22T04:20:31.652Z,93.75
2022-11-22T04:23:08.818Z,93.52
2022-11-22T04:25:36.743Z,93.62
2022-11-22T04:28:04.463Z,93.96
2022-11-22T04:30:49.749Z,93.49
2022-11-22T04:33:16.525Z,93.88
2022-11-22T04:35:43.982Z,93.74
2022-11-22T04:38:11.043Z,93.59
2022-11-22T04:40:38.226Z,93.45
2022-11-22T04:43:24.487Z,93.54
2022-11-22T04:45:51.399Z,93.40
2022-11-22T04:48:18.108Z,93.38
2022-11-22T04:51:03.834Z,93.07
2022-11-22T04:53:30.635Z,93.01
2022-11-22T04:55:57.355Z,92.89
2022-11-22T04:58:24.205Z,92.98
2022-11-22T05:00:50.989Z,92.90
2022-11-22T05:03:17.837Z,93.13
2022-11-22T05:05:44.864Z,92.75
2022-11-22T05:08:11.884Z,92.71
2022-11-22T05:10:56.804Z,92.50
2022-11-22T05:13:27.940Z,92.54
2022-11-22T05:15:54.812Z,92.73
2022-11-22T05:18:21.671Z,92.62
2022-11-22T05:20:48.428Z,92.61
2022-11-22T05:23:33.752Z,92.31
2022-11-22T05:26:00.581Z,92.14
2022-11-22T05:28:27.952Z,92.00
2022-11-22T05:30:55.429Z,91.67
2022-11-22T05:33:22.590Z,91.78
2022-11-22T05:35:49.346Z,91.71
2022-11-22T05:38:16.101Z,91.87
2022-11-22T05:40:42.781Z,91.64
2022-11-22T05:43:09.521Z,91.58
2022-11-22T05:45:36.217Z,91.71
2022-11-22T05:48:02.996Z,91.59
2022-11-22T05:50:29.604Z,91.86
2022-11-22T05:53:00.709Z,91.81
2022-11-22T05:55:27.848Z,91.99
2022-11-22T05:57:54.553Z,92.10
2022-11-22T06:00:21.418Z,92.01
2022-11-22T06:02:48.108Z,92.01
2022-11-22T06:05:15.011Z,92.02
2022-11-22T06:07:41.665Z,91.78
2022-11-22T06:10:08.853Z,91.84
2022-11-22T06:12:35.626Z,91.87
2022-11-22T06:15:02.359Z,91.90
2022-11-22T06:17:29.102Z,91.87
2022-11-22T06:19:57.978Z,92.01
2022-11-22T06:22:28.033Z,92.17
2022-11-22T06:24:54.978Z,91.78
2022-11-22T06:27:21.700Z,91.64
2022-11-22T06:29:48.412Z,91.89
2022-11-22T06:32:15.151Z,91.55
2022-11-22T06:34:41.863Z,91.53
2022-11-22T06:37:08.565Z,91.50
2022-11-22T06:39:35.978Z,91.53
2022-11-22T06:42:02.703Z,91.54
2022-11-22T06:44:29.421Z,91.43
2022-11-22T06:46:56.144Z,91.24
2022-11-22T06:49:22.848Z,91.06
2022-11-22T06:51:49.544Z,91.02
2022-11-22T06:54:16.276Z,91.24
2022-11-22T06:56:43.026Z,90.77
2022-11-22T06:59:09.799Z,90.94
2022-11-22T07:01:37.261Z,90.95
2022-11-22T07:04:04.504Z,90.94
2022-11-22T07:06:35.825Z,90.56
2022-11-22T07:09:03.153Z,90.51
2022-11-22T07:11:30.870Z,90.39
2022-11-22T07:14:03.565Z,90.54
2022-11-22T07:16:34.242Z,90.35
2022-11-22T07:19:01.056Z,90.60
2022-11-22T07:21:27.772Z,90.46
2022-11-22T07:23:55.460Z,90.22
2022-11-22T07:26:23.050Z,90.31
2022-11-22T07:28:49.772Z,90.38
2022-11-22T07:31:17.256Z,90.55
2022-11-22T07:33:44.191Z,90.55
2022-11-22T07:36:15.708Z,90.62
2022-11-22T07:38:42.620Z,90.76
2022-11-22T07:41:09.420Z,90.69
2022-11-22T07:43:36.209Z,90.77
2022-11-22T07:46:06.705Z,90.87
2022-11-22T07:48:33.527Z,90.88
2022-11-22T07:51:06.596Z,90.74
2022-11-22T07:53:33.941Z,90.90
2022-11-22T07:56:04.335Z,90.87
2022-11-22T07:58:31.400Z,90.65
2022-11-22T08:00:58.218Z,90.74
2022-11-22T08:03:28.993Z,90.52
2022-11-22T08:06:00.779Z,90.51
2022-11-22T08:08:27.817Z,90.43
2022-11-22T08:10:54.624Z,90.74
2022-11-22T08:13:21.233Z,90.47
2022-11-22T08:15:49.539Z,90.47
2022-11-22T08:18:16.496Z,90.51
2022-11-22T08:20:43.202Z,90.37
2022-11-22T08:23:10.031Z,90.61
2022-11-22T08:25:36.668Z,90.31
2022-11-22T08:28:03.405Z,90.33
2022-11-22T08:30:30.108Z,90.40
2022-11-22T08:32:56.927Z,90.13
2022-11-22T08:35:23.685Z,90.07
2022-11-22T08:37:50.407Z,90.43
2022-11-22T08:40:17.117Z,90.41
2022-11-22T08:42:43.838Z,90.25
2022-11-22T08:45:10.642Z,90.16
2022-11-22T08:47:37.374Z,89.88
2022-11-22T08:50:04.527Z,90.26
2022-11-22T08:52:31.252Z,90.03
2022-11-22T08:54:57.949Z,90.16
2022-11-22T08:57:24.688Z,90.13
2022-11-22T08:59:51.426Z,89.99
2022-11-22T09:02:18.155Z,90.09
2022-11-22T09:04:44.872Z,89.96
2022-11-22T09:09:58.550Z,89.42
2022-11-22T09:12:25.254Z,89.50
2022-11-22T09:14:52.129Z,89.63
2022-11-22T09:17:18.832Z,90.00
2022-11-22T09:19:45.581Z,89.61
2022-11-22T09:22:12.396Z,89.56
2022-11-22T09:24:39.078Z,90.02
2022-11-22T09:27:06.352Z,89.93
2022-11-22T09:29:33.380Z,89.79
2022-11-22T09:32:00.208Z,89.68
2022-11-22T09:34:26.941Z,89.71
2022-11-22T09:36:53.688Z,89.69
2022-11-22T09:39:20.379Z,89.53
2022-11-22T09:41:51.640Z,89.63
2022-11-22T09:44:36.556Z,89.42
2022-11-22T09:47:25.423Z,89.55
2022-11-22T09:50:29.674Z,89.50
2022-11-22T09:53:03.663Z,89.37
2022-11-22T09:55:34.899Z,89.95
2022-11-22T09:58:33.453Z,89.61
2022-11-22T10:01:19.402Z,89.85
2022-11-22T10:03:54.538Z,89.74
2022-11-22T10:06:24.816Z,89.68
2022-11-22T10:09:00.779Z,89.51
2022-11-22T10:11:48.057Z,89.69
2022-11-22T10:14:25.545Z,89.60
2022-11-22T10:17:15.456Z,89.83
2022-11-22T10:19:46.056Z,89.91
2022-11-22T10:22:13.258Z,89.61
2022-11-22T10:24:40.610Z,89.86
2022-11-22T10:27:13.173Z,89.69
2022-11-22T10:29:52.511Z,89.52
2022-11-22T10:32:39.106Z,89.79
2022-11-22T10:35:14.775Z,89.41
2022-11-22T10:37:54.105Z,89.43
2022-11-22T10:40:28.112Z,89.63
2022-11-22T10:43:20.134Z,89.63
2022-11-22T10:46:07.101Z,89.43
2022-11-22T10:49:05.778Z,89.30
2022-11-22T10:51:54.167Z,89.16
2022-11-22T10:54:25.672Z,89.20
2022-11-22T10:56:55.146Z,89.06
2022-11-22T10:59:51.352Z,88.88
2022-11-22T11:02:32.499Z,88.62
2022-11-22T11:04:59.520Z,88.59
2022-11-22T11:07:26.270Z,88.88
2022-11-22T11:10:11.467Z,88.98
2022-11-22T11:12:41.676Z,89.10
2022-11-22T11:15:23.092Z,89.02
2022-11-22T11:17:53.720Z,88.90
2022-11-22T11:20:27.262Z,88.78
2022-11-22T11:25:42.768Z,88.73
2022-11-22T11:28:19.668Z,88.42
2022-11-22T11:30:48.295Z,88.69
2022-11-22T11:33:29.142Z,88.76
2022-11-22T11:36:16.947Z,88.79
2022-11-22T11:38:43.652Z,88.75
2022-11-22T11:41:25.625Z,89.00
2022-11-22T11:43:54.199Z,89.21
2022-11-22T11:46:25.697Z,88.77
2022-11-22T11:48:53.794Z,88.82
2022-11-22T11:51:20.520Z,88.88
2022-11-22T11:53:59.266Z,89.00
2022-11-22T11:56:56.098Z,89.08
2022-11-22T11:59:32.548Z,88.79
2022-11-22T12:02:14.593Z,89.08
2022-11-22T12:04:52.361Z,88.68
2022-11-22T12:07:25.627Z,88.56
2022-11-22T12:09:56.179Z,88.40
2022-11-22T12:12:48.945Z,88.55
2022-11-22T12:15:26.212Z,88.76
2022-11-22T12:17:54.647Z,88.74
2022-11-22T12:20:28.147Z,88.58
2022-11-22T12:23:00.262Z,88.61
2022-11-22T12:25:36.206Z,88.64
2022-11-22T12:28:23.893Z,88.46
2022-11-22T12:30:56.485Z,88.31
2022-11-22T12:33:33.041Z,88.12
2022-11-22T12:35:59.762Z,88.00
2022-11-22T12:38:44.845Z,88.27
2022-11-22T12:41:13.833Z,88.28
2022-11-22T12:43:51.399Z,88.60
2022-11-22T12:46:26.448Z,88.43
2022-11-22T12:49:03.161Z,88.40
2022-11-22T12:51:50.997Z,88.37
2022-11-22T12:54:20.179Z,88.56
2022-11-22T12:56:54.802Z,88.55
2022-11-22T12:59:25.636Z,88.39
2022-11-22T13:02:01.242Z,88.33
2022-11-22T13:04:59.153Z,88.30
2022-11-22T13:07:31.973Z,88.72
2022-11-22T13:10:02.103Z,88.59
2022-11-22T13:12:32.035Z,88.56
2022-11-22T13:14:58.963Z,88.68
2022-11-22T13:17:26.977Z,88.48
2022-11-22T13:20:06.917Z,88.58
2022-11-22T13:22:58.244Z,88.47
2022-11-22T13:25:52.262Z,88.55
2022-11-22T13:28:21.314Z,88.52
2022-11-22T13:31:23.643Z,88.50
2022-11-22T13:33:57.063Z,88.67
2022-11-22T13:36:29.881Z,88.59
2022-11-22T13:39:04.429Z,88.58
2022-11-22T13:41:51.472Z,88.51
2022-11-22T13:44:26.413Z,88.00
2022-11-22T13:46:53.402Z,88.08
2022-11-22T18:34:13.818Z,94.55
2022-11-22T18:37:01.381Z,94.21
2022-11-22T18:39:29.369Z,93.93
2022-11-22T18:41:56.730Z,93.96
2022-11-22T18:44:23.442Z,93.43
2022-11-22T18:46:50.244Z,93.51
2022-11-22T18:49:16.926Z,93.64
2022-11-22T18:51:43.690Z,93.38
2022-11-22T18:54:10.621Z,93.16
2022-11-22T18:56:40.346Z,92.74
2022-11-22T18:59:08.054Z,92.49
2022-11-22T19:01:35.216Z,92.34
2022-11-22T19:04:03.076Z,92.52
2022-11-22T19:06:30.304Z,92.62
2022-11-22T19:08:57.105Z,92.41
2022-11-22T19:11:23.833Z,92.30
2022-11-22T19:13:50.694Z,92.35
2022-11-22T19:16:18.486Z,92.02
2022-11-22T19:18:45.294Z,92.16
2022-11-22T19:21:13.806Z,92.07
2022-11-22T19:23:41.213Z,91.84
2022-11-22T19:26:09.660Z,91.96
2022-11-22T19:28:36.680Z,91.86
2022-11-22T19:31:04.154Z,91.69
2022-11-22T19:33:30.992Z,91.28
2022-11-22T19:35:58.270Z,91.31
2022-11-22T19:38:25.489Z,91.40
2022-11-22T19:40:53.091Z,91.19
2022-11-22T19:43:19.923Z,91.39
2022-11-22T19:45:46.596Z,91.33
2022-11-22T19:48:13.886Z,90.72
2022-11-22T19:50:40.871Z,90.56
2022-11-22T19:53:07.716Z,90.81
2022-11-22T19:55:34.465Z,90.96
2022-11-22T19:58:01.229Z,90.75
2022-11-22T20:00:28.132Z,90.41
2022-11-22T20:02:54.894Z,90.44
2022-11-22T20:05:21.653Z,90.05
2022-11-22T20:07:48.585Z,89.76
2022-11-22T20:10:15.538Z,89.57
2022-11-22T20:12:45.362Z,89.44
2022-11-22T20:15:12.102Z,89.42
2022-11-22T20:17:38.833Z,89.20
2022-11-22T20:20:07.063Z,89.40
2022-11-22T20:22:33.924Z,89.39
2022-11-22T20:25:00.627Z,89.56
2022-11-22T20:27:28.142Z,89.54
2022-11-22T20:29:54.965Z,89.28
2022-11-22T20:32:23.075Z,89.56
2022-11-22T20:34:49.711Z,89.41
2022-11-22T20:37:18.671Z,89.20
2022-11-22T20:39:45.374Z,89.21
2022-11-22T20:42:33.568Z,89.29
2022-11-22T20:44:58.796Z,89.23
2022-11-22T20:47:25.551Z,89.32
2022-11-22T20:49:52.268Z,89.21
2022-11-22T20:52:19.089Z,89.31
2022-11-22T20:54:45.735Z,89.49
2022-11-22T20:57:12.506Z,89.16
2022-11-22T20:59:39.290Z,89.34
2022-11-22T21:02:09.209Z,89.42
2022-11-22T21:04:36.480Z,89.37
2022-11-22T21:07:03.452Z,89.37
2022-11-22T21:09:30.288Z,89.35
2022-11-22T21:11:57.027Z,89.26
2022-11-22T21:14:23.746Z,89.36
2022-11-22T21:16:50.443Z,89.41
2022-11-22T21:19:17.808Z,89.29
2022-11-22T21:21:44.525Z,89.62
2022-11-22T21:24:11.455Z,89.57
2022-11-22T21:26:38.071Z,89.25
2022-11-22T21:29:11.543Z,89.07
2022-11-22T21:31:42.493Z,89.21
2022-11-22T21:34:09.197Z,89.26
2022-11-22T21:36:35.874Z,89.03
2022-11-22T21:39:02.574Z,89.02
2022-11-22T21:41:39.735Z,89.14
2022-11-22T21:44:07.743Z,89.15
2022-11-22T21:46:34.499Z,89.35
2022-11-22T21:49:01.231Z,89.11
2022-11-22T21:51:28.052Z,89.07
2022-11-22T21:53:58.563Z,89.13
2022-11-22T21:56:25.828Z,89.10
2022-11-22T21:58:52.553Z,89.24
2022-11-22T22:01:19.351Z,89.22
2022-11-22T22:03:46.092Z,89.34
2022-11-22T22:06:12.795Z,89.15
2022-11-22T22:08:40.806Z,88.97
2022-11-22T22:11:07.659Z,89.30
2022-11-22T22:13:34.461Z,89.02
2022-11-22T22:16:03.530Z,89.07
2022-11-22T22:18:34.579Z,88.99
2022-11-22T22:21:02.400Z,89.17
2022-11-22T22:23:29.241Z,88.89
2022-11-22T22:26:02.687Z,88.83
2022-11-22T22:28:33.448Z,88.65
2022-11-22T22:31:07.405Z,88.55
2022-11-22T22:33:35.087Z,88.60
2022-11-22T22:36:01.959Z,88.65
2022-11-22T22:38:31.613Z,88.39
2022-11-22T22:41:00.066Z,88.73
2022-11-22T22:43:30.364Z,88.42
2022-11-22T22:46:06.219Z,88.54
2022-11-22T22:48:33.880Z,88.24
2022-11-22T22:51:20.326Z,88.11
2022-11-22T22:53:47.196Z,88.36
2022-11-22T22:56:14.367Z,88.33
2022-11-22T22:58:41.161Z,88.31
2022-11-22T23:01:12.817Z,88.45
2022-11-22T23:03:39.636Z,88.52
2022-11-22T23:06:10.420Z,88.32
2022-11-22T23:08:37.762Z,88.50
2022-11-22T23:11:08.902Z,88.85
2022-11-22T23:13:36.649Z,88.83
2022-11-22T23:16:07.506Z,89.00
2022-11-22T23:18:35.358Z,89.19
2022-11-22T23:21:02.970Z,89.02
2022-11-22T23:23:29.728Z,89.01
2022-11-22T23:25:56.518Z,88.92
2022-11-22T23:28:23.475Z,89.07
2022-11-22T23:30:50.193Z,89.22
2022-11-22T23:33:16.914Z,89.37
2022-11-22T23:35:43.630Z,89.26
2022-11-22T23:38:10.328Z,89.18
2022-11-22T23:40:36.999Z,89.43
2022-11-22T23:43:03.714Z,89.36
2022-11-22T23:45:30.411Z,89.42
2022-11-22T23:47:57.130Z,89.59
2022-11-22T23:50:23.738Z,89.48
2022-11-22T23:52:56.072Z,89.58
2022-11-22T23:55:22.817Z,89.58
2022-11-22T23:57:49.546Z,89.88
